T21 EFTP-EFKU
Flight info
| Callsign | T21 |
|---|---|
| Flight time | 0h 54m |
| Altitude | 15500 |
| Route | PUPPA KARJU TC |
| Aircraft | PC12/L-SDFGRY/H |
Departure
| Time | 2026-04-17 16:21 |
|---|---|
| Airport | Tampere-Pirkkala Airport (EFTP) |
Arrival
| Time | 2026-04-17 17:16 |
|---|---|
| Airport | Kuopio Airport (EFKU) |
| Time | Latitude | Longitude | Altitude | Speed | Heading |
|---|---|---|---|---|---|
| 2026-04-17 16:08 | 61.40896 | 23.61837 | 379 ft | 0 kts | 337° |
| 2026-04-17 16:14 | 61.40899 | 23.61838 | 379 ft | 2 kts | 18° |
| 2026-04-17 16:15 | 61.40921 | 23.61904 | 380 ft | 10 kts | 68° |
| 2026-04-17 16:15 | 61.40960 | 23.62056 | 384 ft | 12 kts | 46° |
| 2026-04-17 16:15 | 61.41038 | 23.62176 | 385 ft | 15 kts | 28° |
| 2026-04-17 16:15 | 61.41138 | 23.62265 | 385 ft | 18 kts | 22° |
| 2026-04-17 16:16 | 61.41256 | 23.62367 | 385 ft | 19 kts | 23° |
| 2026-04-17 16:16 | 61.41385 | 23.62482 | 385 ft | 20 kts | 22° |
| 2026-04-17 16:16 | 61.41524 | 23.62600 | 385 ft | 22 kts | 22° |
| 2026-04-17 16:16 | 61.41566 | 23.62643 | 385 ft | 0 kts | 127° |
| 2026-04-17 16:17 | 61.41569 | 23.62629 | 385 ft | 0 kts | 71° |
| 2026-04-17 16:17 | 61.41593 | 23.62658 | 385 ft | 9 kts | 21° |
| 2026-04-17 16:17 | 61.41684 | 23.62737 | 381 ft | 19 kts | 21° |
| 2026-04-17 16:17 | 61.41804 | 23.62844 | 379 ft | 14 kts | 15° |
| 2026-04-17 16:18 | 61.41911 | 23.62722 | 372 ft | 18 kts | 316° |
| 2026-04-17 16:18 | 61.41912 | 23.62606 | 373 ft | 2 kts | 242° |
| 2026-04-17 16:18 | 61.41912 | 23.62605 | 373 ft | 0 kts | 243° |
| 2026-04-17 16:20 | 61.41911 | 23.62605 | 373 ft | 0 kts | 246° |
| 2026-04-17 16:20 | 61.41889 | 23.62503 | 373 ft | 25 kts | 244° |
| 2026-04-17 16:20 | 61.41744 | 23.61868 | 374 ft | 73 kts | 245° |
| 2026-04-17 16:21 | 61.41461 | 23.60646 | 387 ft | 112 kts | 245° |
| 2026-04-17 16:21 | 61.41084 | 23.59018 | 538 ft | 133 kts | 252° |
| 2026-04-17 16:21 | 61.40678 | 23.57078 | 810 ft | 151 kts | 250° |
| 2026-04-17 16:21 | 61.40257 | 23.55241 | 1583 ft | 135 kts | 246° |
| 2026-04-17 16:22 | 61.39782 | 23.53364 | 1842 ft | 159 kts | 244° |
| 2026-04-17 16:22 | 61.39328 | 23.51307 | 2450 ft | 148 kts | 264° |
| 2026-04-17 16:22 | 61.39427 | 23.49217 | 2867 ft | 150 kts | 302° |
| 2026-04-17 16:22 | 61.40088 | 23.47550 | 3241 ft | 147 kts | 334° |
| 2026-04-17 16:23 | 61.41007 | 23.46947 | 3749 ft | 137 kts | 6° |
| 2026-04-17 16:23 | 61.41915 | 23.47505 | 4155 ft | 138 kts | 37° |
| 2026-04-17 16:23 | 61.42595 | 23.48932 | 4492 ft | 141 kts | 55° |
| 2026-04-17 16:23 | 61.43077 | 23.50738 | 4774 ft | 145 kts | 65° |
| 2026-04-17 16:24 | 61.43459 | 23.52738 | 4982 ft | 151 kts | 70° |
| 2026-04-17 16:24 | 61.43738 | 23.54852 | 5249 ft | 151 kts | 76° |
| 2026-04-17 16:24 | 61.43942 | 23.57013 | 5528 ft | 153 kts | 79° |
| 2026-04-17 16:24 | 61.44103 | 23.59226 | 5808 ft | 155 kts | 80° |
| 2026-04-17 16:25 | 61.44238 | 23.61483 | 6073 ft | 157 kts | 82° |
| 2026-04-17 16:25 | 61.44416 | 23.63718 | 6356 ft | 158 kts | 68° |
| 2026-04-17 16:25 | 61.44781 | 23.65051 | 6434 ft | 163 kts | 47° |
| 2026-04-17 16:25 | 61.46049 | 23.66724 | 6863 ft | 157 kts | 20° |
| 2026-04-17 16:26 | 61.46726 | 23.67263 | 7045 ft | 159 kts | 21° |
| 2026-04-17 16:26 | 61.47779 | 23.67905 | 7349 ft | 159 kts | 0° |
| 2026-04-17 16:26 | 61.48856 | 23.67416 | 7623 ft | 159 kts | 352° |
| 2026-04-17 16:26 | 61.49959 | 23.67288 | 7893 ft | 159 kts | 5° |
| 2026-04-17 16:27 | 61.51041 | 23.67746 | 8177 ft | 160 kts | 22° |
| 2026-04-17 16:27 | 61.52072 | 23.68640 | 8449 ft | 161 kts | 24° |
| 2026-04-17 16:27 | 61.53097 | 23.69601 | 8725 ft | 162 kts | 25° |
| 2026-04-17 16:27 | 61.54124 | 23.70598 | 8999 ft | 163 kts | 25° |
| 2026-04-17 16:28 | 61.55155 | 23.71608 | 9274 ft | 164 kts | 25° |
| 2026-04-17 16:28 | 61.56191 | 23.72628 | 9542 ft | 165 kts | 25° |
| 2026-04-17 16:28 | 61.57233 | 23.73649 | 9805 ft | 166 kts | 24° |
| 2026-04-17 16:28 | 61.58286 | 23.74680 | 10082 ft | 167 kts | 24° |
| 2026-04-17 16:29 | 61.59343 | 23.75719 | 10314 ft | 168 kts | 24° |
| 2026-04-17 16:29 | 61.60404 | 23.76765 | 10554 ft | 169 kts | 24° |
| 2026-04-17 16:29 | 61.61468 | 23.77814 | 10789 ft | 169 kts | 24° |
| 2026-04-17 16:29 | 61.62539 | 23.78867 | 11075 ft | 170 kts | 24° |
| 2026-04-17 16:30 | 61.63612 | 23.79920 | 11385 ft | 170 kts | 24° |
| 2026-04-17 16:30 | 61.64688 | 23.80979 | 11681 ft | 171 kts | 24° |
| 2026-04-17 16:30 | 61.65771 | 23.82049 | 11984 ft | 172 kts | 24° |
| 2026-04-17 16:30 | 61.66843 | 23.83110 | 12284 ft | 173 kts | 24° |
| 2026-04-17 16:31 | 61.67932 | 23.84190 | 12574 ft | 174 kts | 24° |
| 2026-04-17 16:31 | 61.69030 | 23.85277 | 12863 ft | 175 kts | 24° |
| 2026-04-17 16:31 | 61.70131 | 23.86369 | 13158 ft | 175 kts | 24° |
| 2026-04-17 16:31 | 61.71235 | 23.87465 | 13455 ft | 176 kts | 24° |
| 2026-04-17 16:32 | 61.72345 | 23.88567 | 13740 ft | 177 kts | 24° |
| 2026-04-17 16:32 | 61.73461 | 23.89675 | 14024 ft | 177 kts | 23° |
| 2026-04-17 16:32 | 61.74581 | 23.90789 | 14269 ft | 178 kts | 23° |
| 2026-04-17 16:32 | 61.75685 | 23.91984 | 14517 ft | 180 kts | 36° |
| 2026-04-17 16:33 | 61.76381 | 23.94176 | 14753 ft | 186 kts | 67° |
| 2026-04-17 16:33 | 61.76776 | 23.96803 | 14963 ft | 190 kts | 79° |
| 2026-04-17 16:33 | 61.76552 | 23.99531 | 15221 ft | 195 kts | 119° |
| 2026-04-17 16:33 | 61.75731 | 24.01852 | 15421 ft | 199 kts | 129° |
| 2026-04-17 16:34 | 61.74818 | 24.04065 | 15660 ft | 200 kts | 130° |
| 2026-04-17 16:34 | 61.73876 | 24.06318 | 15723 ft | 211 kts | 130° |
| 2026-04-17 16:34 | 61.72881 | 24.08688 | 15717 ft | 221 kts | 130° |
| 2026-04-17 16:34 | 61.71916 | 24.11264 | 15719 ft | 227 kts | 115° |
| 2026-04-17 16:35 | 61.71587 | 24.14472 | 15729 ft | 226 kts | 83° |
| 2026-04-17 16:35 | 61.71902 | 24.17741 | 15722 ft | 230 kts | 72° |
| 2026-04-17 16:35 | 61.72351 | 24.20998 | 15729 ft | 233 kts | 70° |
| 2026-04-17 16:35 | 61.72822 | 24.24283 | 15721 ft | 235 kts | 70° |
| 2026-04-17 16:36 | 61.73302 | 24.27597 | 15727 ft | 237 kts | 70° |
| 2026-04-17 16:36 | 61.74001 | 24.30719 | 15718 ft | 235 kts | 57° |
| 2026-04-17 16:36 | 61.74817 | 24.33721 | 15718 ft | 236 kts | 59° |
| 2026-04-17 16:36 | 61.75596 | 24.36783 | 15720 ft | 237 kts | 59° |
| 2026-04-17 16:37 | 61.76369 | 24.39867 | 15720 ft | 238 kts | 59° |
| 2026-04-17 16:37 | 61.77141 | 24.42957 | 15720 ft | 238 kts | 59° |
| 2026-04-17 16:37 | 61.77913 | 24.46052 | 15716 ft | 238 kts | 59° |
| 2026-04-17 16:37 | 61.78683 | 24.49144 | 15719 ft | 238 kts | 59° |
| 2026-04-17 16:38 | 61.79444 | 24.52202 | 15721 ft | 238 kts | 60° |
| 2026-04-17 16:38 | 61.80218 | 24.55303 | 15722 ft | 238 kts | 59° |
| 2026-04-17 16:38 | 61.80993 | 24.58404 | 15718 ft | 239 kts | 59° |
| 2026-04-17 16:38 | 61.81767 | 24.61511 | 15718 ft | 239 kts | 59° |
| 2026-04-17 16:39 | 61.82540 | 24.64614 | 15718 ft | 239 kts | 59° |
| 2026-04-17 16:39 | 61.83316 | 24.67722 | 15717 ft | 239 kts | 59° |
| 2026-04-17 16:39 | 61.84091 | 24.70826 | 15727 ft | 239 kts | 59° |
| 2026-04-17 16:39 | 61.84866 | 24.73935 | 15719 ft | 239 kts | 59° |
| 2026-04-17 16:40 | 61.85639 | 24.77043 | 15722 ft | 239 kts | 59° |
| 2026-04-17 16:40 | 61.86413 | 24.80158 | 15716 ft | 239 kts | 59° |
| 2026-04-17 16:40 | 61.87210 | 24.83236 | 15714 ft | 238 kts | 52° |
| 2026-04-17 16:40 | 61.88296 | 24.85844 | 15717 ft | 235 kts | 42° |
| 2026-04-17 16:41 | 61.89476 | 24.88249 | 15717 ft | 235 kts | 41° |
| 2026-04-17 16:41 | 61.90668 | 24.90619 | 15722 ft | 235 kts | 40° |
| 2026-04-17 16:41 | 61.91862 | 24.92990 | 15719 ft | 235 kts | 40° |
| 2026-04-17 16:41 | 61.93053 | 24.95365 | 15721 ft | 235 kts | 41° |
| 2026-04-17 16:42 | 61.94221 | 24.97802 | 15717 ft | 235 kts | 42° |
| 2026-04-17 16:42 | 61.95352 | 25.00316 | 15711 ft | 237 kts | 52° |
| 2026-04-17 16:42 | 61.96037 | 25.03518 | 15729 ft | 240 kts | 69° |
| 2026-04-17 16:42 | 61.96522 | 25.06915 | 15718 ft | 241 kts | 71° |
| 2026-04-17 16:43 | 61.96978 | 25.10341 | 15718 ft | 241 kts | 72° |
| 2026-04-17 16:43 | 61.97431 | 25.13771 | 15718 ft | 241 kts | 72° |
| 2026-04-17 16:43 | 61.97882 | 25.17199 | 15722 ft | 241 kts | 72° |
| 2026-04-17 16:43 | 61.98332 | 25.20632 | 15722 ft | 241 kts | 72° |
| 2026-04-17 16:44 | 61.98782 | 25.24071 | 15715 ft | 241 kts | 72° |
| 2026-04-17 16:44 | 61.99233 | 25.27507 | 15724 ft | 241 kts | 72° |
| 2026-04-17 16:44 | 61.99686 | 25.30944 | 15718 ft | 241 kts | 72° |
| 2026-04-17 16:44 | 62.00137 | 25.34383 | 15722 ft | 241 kts | 72° |
| 2026-04-17 16:45 | 62.00589 | 25.37823 | 15723 ft | 241 kts | 72° |
| 2026-04-17 16:45 | 62.01041 | 25.41260 | 15720 ft | 241 kts | 72° |
| 2026-04-17 16:45 | 62.01493 | 25.44702 | 15727 ft | 241 kts | 72° |
| 2026-04-17 16:45 | 62.01944 | 25.48144 | 15727 ft | 241 kts | 72° |
| 2026-04-17 16:46 | 62.02393 | 25.51586 | 15723 ft | 241 kts | 72° |
| 2026-04-17 16:46 | 62.02844 | 25.55026 | 15722 ft | 241 kts | 72° |
| 2026-04-17 16:46 | 62.03294 | 25.58469 | 15726 ft | 241 kts | 72° |
| 2026-04-17 16:46 | 62.03744 | 25.61915 | 15725 ft | 241 kts | 72° |
| 2026-04-17 16:47 | 62.04186 | 25.65320 | 15725 ft | 241 kts | 72° |
| 2026-04-17 16:47 | 62.04636 | 25.68767 | 15724 ft | 242 kts | 72° |
| 2026-04-17 16:47 | 62.05088 | 25.72218 | 15722 ft | 242 kts | 72° |
| 2026-04-17 16:47 | 62.05540 | 25.75668 | 15726 ft | 242 kts | 72° |
| 2026-04-17 16:48 | 62.05993 | 25.79118 | 15717 ft | 242 kts | 72° |
| 2026-04-17 16:48 | 62.06447 | 25.82570 | 15723 ft | 242 kts | 72° |
| 2026-04-17 16:48 | 62.06900 | 25.86022 | 15720 ft | 242 kts | 72° |
| 2026-04-17 16:48 | 62.07355 | 25.89480 | 15721 ft | 242 kts | 72° |
| 2026-04-17 16:49 | 62.07808 | 25.92935 | 15717 ft | 242 kts | 72° |
| 2026-04-17 16:49 | 62.08264 | 25.96391 | 15724 ft | 243 kts | 72° |
| 2026-04-17 16:49 | 62.08723 | 25.99868 | 15723 ft | 244 kts | 72° |
| 2026-04-17 16:49 | 62.09183 | 26.03361 | 15728 ft | 245 kts | 72° |
| 2026-04-17 16:50 | 62.09645 | 26.06867 | 15721 ft | 246 kts | 72° |
| 2026-04-17 16:50 | 62.10109 | 26.10379 | 15718 ft | 246 kts | 72° |
| 2026-04-17 16:50 | 62.10573 | 26.13896 | 15718 ft | 247 kts | 72° |
| 2026-04-17 16:50 | 62.11040 | 26.17428 | 15725 ft | 247 kts | 72° |
| 2026-04-17 16:51 | 62.11506 | 26.20962 | 15720 ft | 247 kts | 72° |
| 2026-04-17 16:51 | 62.11975 | 26.24500 | 15727 ft | 248 kts | 72° |
| 2026-04-17 16:51 | 62.12445 | 26.28049 | 15721 ft | 250 kts | 72° |
| 2026-04-17 16:51 | 62.12921 | 26.31654 | 15722 ft | 253 kts | 72° |
| 2026-04-17 16:52 | 62.13400 | 26.35289 | 15726 ft | 255 kts | 72° |
| 2026-04-17 16:52 | 62.13884 | 26.38949 | 15718 ft | 257 kts | 72° |
| 2026-04-17 16:52 | 62.14371 | 26.42632 | 15723 ft | 258 kts | 72° |
| 2026-04-17 16:52 | 62.14860 | 26.46332 | 15723 ft | 259 kts | 72° |
| 2026-04-17 16:53 | 62.15350 | 26.50039 | 15717 ft | 260 kts | 72° |
| 2026-04-17 16:53 | 62.15843 | 26.53758 | 15717 ft | 260 kts | 72° |
| 2026-04-17 16:53 | 62.16337 | 26.57484 | 15722 ft | 261 kts | 72° |
| 2026-04-17 16:53 | 62.16831 | 26.61216 | 15726 ft | 261 kts | 72° |
| 2026-04-17 16:54 | 62.17325 | 26.64955 | 15719 ft | 261 kts | 73° |
| 2026-04-17 16:54 | 62.17820 | 26.68693 | 15722 ft | 261 kts | 72° |
| 2026-04-17 16:54 | 62.18315 | 26.72440 | 15719 ft | 261 kts | 73° |
| 2026-04-17 16:54 | 62.18809 | 26.76187 | 15719 ft | 261 kts | 72° |
| 2026-04-17 16:55 | 62.19303 | 26.79929 | 15720 ft | 262 kts | 73° |
| 2026-04-17 16:55 | 62.19800 | 26.83685 | 15717 ft | 262 kts | 72° |
| 2026-04-17 16:55 | 62.20298 | 26.87436 | 15719 ft | 262 kts | 72° |
| 2026-04-17 16:55 | 62.20781 | 26.91201 | 15714 ft | 263 kts | 77° |
| 2026-04-17 16:56 | 62.20771 | 26.95106 | 15723 ft | 264 kts | 97° |
| 2026-04-17 16:56 | 62.20437 | 26.98977 | 15724 ft | 264 kts | 101° |
| 2026-04-17 16:56 | 62.20051 | 27.02828 | 15722 ft | 265 kts | 102° |
| 2026-04-17 16:56 | 62.19654 | 27.06683 | 15723 ft | 265 kts | 101° |
| 2026-04-17 16:57 | 62.19257 | 27.10536 | 15719 ft | 265 kts | 102° |
| 2026-04-17 16:57 | 62.18892 | 27.14353 | 15711 ft | 265 kts | 95° |
| 2026-04-17 16:57 | 62.19144 | 27.18191 | 15720 ft | 261 kts | 66° |
| 2026-04-17 16:57 | 62.20053 | 27.21538 | 15720 ft | 260 kts | 55° |
| 2026-04-17 16:58 | 62.21041 | 27.24784 | 15718 ft | 260 kts | 55° |
| 2026-04-17 16:58 | 62.22031 | 27.28043 | 15718 ft | 261 kts | 55° |
| 2026-04-17 16:58 | 62.23020 | 27.31305 | 15721 ft | 261 kts | 55° |
| 2026-04-17 16:58 | 62.24010 | 27.34572 | 15718 ft | 261 kts | 55° |
| 2026-04-17 16:59 | 62.24999 | 27.37840 | 15713 ft | 260 kts | 56° |
| 2026-04-17 16:59 | 62.25980 | 27.41084 | 15624 ft | 260 kts | 55° |
| 2026-04-17 16:59 | 62.27065 | 27.44179 | 15528 ft | 259 kts | 47° |
| 2026-04-17 16:59 | 62.28351 | 27.46862 | 15442 ft | 257 kts | 38° |
| 2026-04-17 17:00 | 62.29801 | 27.49089 | 15344 ft | 255 kts | 29° |
| 2026-04-17 17:00 | 62.31385 | 27.50800 | 15243 ft | 254 kts | 18° |
| 2026-04-17 17:00 | 62.33082 | 27.51805 | 15155 ft | 252 kts | 9° |
| 2026-04-17 17:00 | 62.34805 | 27.52516 | 15070 ft | 252 kts | 9° |
| 2026-04-17 17:01 | 62.36517 | 27.53261 | 14907 ft | 251 kts | 10° |
| 2026-04-17 17:01 | 62.38225 | 27.54042 | 14647 ft | 251 kts | 10° |
| 2026-04-17 17:01 | 62.39930 | 27.54816 | 14399 ft | 250 kts | 9° |
| 2026-04-17 17:01 | 62.41628 | 27.55580 | 14164 ft | 249 kts | 9° |
| 2026-04-17 17:02 | 62.43324 | 27.56339 | 13931 ft | 248 kts | 9° |
| 2026-04-17 17:02 | 62.45010 | 27.57092 | 13683 ft | 247 kts | 9° |
| 2026-04-17 17:02 | 62.46686 | 27.57842 | 13433 ft | 246 kts | 9° |
| 2026-04-17 17:02 | 62.48354 | 27.58603 | 13205 ft | 244 kts | 9° |
| 2026-04-17 17:03 | 62.50009 | 27.59350 | 12946 ft | 239 kts | 9° |
| 2026-04-17 17:03 | 62.51635 | 27.60086 | 12249 ft | 240 kts | 9° |
| 2026-04-17 17:03 | 62.53258 | 27.60820 | 11643 ft | 237 kts | 9° |
| 2026-04-17 17:03 | 62.54861 | 27.61545 | 11051 ft | 234 kts | 10° |
| 2026-04-17 17:04 | 62.56424 | 27.62257 | 10498 ft | 234 kts | 10° |
| 2026-04-17 17:04 | 62.58024 | 27.62982 | 10163 ft | 229 kts | 10° |
| 2026-04-17 17:04 | 62.59585 | 27.63698 | 9751 ft | 229 kts | 11° |
| 2026-04-17 17:04 | 62.61120 | 27.64398 | 9495 ft | 224 kts | 11° |
| 2026-04-17 17:05 | 62.62615 | 27.65079 | 9209 ft | 213 kts | 11° |
| 2026-04-17 17:05 | 62.64079 | 27.65744 | 8533 ft | 215 kts | 11° |
| 2026-04-17 17:05 | 62.65510 | 27.66399 | 7991 ft | 211 kts | 11° |
| 2026-04-17 17:05 | 62.66937 | 27.67054 | 7435 ft | 208 kts | 12° |
| 2026-04-17 17:06 | 62.68344 | 27.67698 | 6898 ft | 205 kts | 12° |
| 2026-04-17 17:06 | 62.69740 | 27.68326 | 6442 ft | 202 kts | 12° |
| 2026-04-17 17:06 | 62.71106 | 27.68950 | 5852 ft | 200 kts | 12° |
| 2026-04-17 17:06 | 62.72459 | 27.69576 | 5289 ft | 198 kts | 12° |
| 2026-04-17 17:07 | 62.73797 | 27.70185 | 4733 ft | 195 kts | 12° |
| 2026-04-17 17:07 | 62.75122 | 27.70788 | 4156 ft | 194 kts | 12° |
| 2026-04-17 17:07 | 62.76439 | 27.71399 | 3591 ft | 193 kts | 12° |
| 2026-04-17 17:07 | 62.77744 | 27.72009 | 3026 ft | 191 kts | 12° |
| 2026-04-17 17:08 | 62.79039 | 27.72600 | 2468 ft | 189 kts | 12° |
| 2026-04-17 17:08 | 62.80327 | 27.73185 | 1908 ft | 188 kts | 12° |
| 2026-04-17 17:08 | 62.81624 | 27.73783 | 1509 ft | 194 kts | 12° |
| 2026-04-17 17:08 | 62.82966 | 27.74406 | 1512 ft | 201 kts | 13° |
| 2026-04-17 17:09 | 62.84358 | 27.75061 | 1509 ft | 209 kts | 13° |
| 2026-04-17 17:09 | 62.85791 | 27.75727 | 1516 ft | 212 kts | 12° |
| 2026-04-17 17:09 | 62.87245 | 27.76393 | 1514 ft | 215 kts | 12° |
| 2026-04-17 17:09 | 62.88710 | 27.77068 | 1515 ft | 214 kts | 12° |
| 2026-04-17 17:10 | 62.90144 | 27.77806 | 1511 ft | 208 kts | 18° |
| 2026-04-17 17:10 | 62.91477 | 27.78966 | 1463 ft | 205 kts | 25° |
| 2026-04-17 17:10 | 62.92737 | 27.80398 | 1387 ft | 203 kts | 31° |
| 2026-04-17 17:10 | 62.93913 | 27.82094 | 1256 ft | 203 kts | 36° |
| 2026-04-17 17:11 | 62.95140 | 27.83567 | 1048 ft | 195 kts | 22° |
| 2026-04-17 17:11 | 62.96377 | 27.83469 | 942 ft | 166 kts | 351° |
| 2026-04-17 17:11 | 62.97358 | 27.82815 | 825 ft | 140 kts | 346° |
| 2026-04-17 17:11 | 62.98339 | 27.81966 | 652 ft | 163 kts | 340° |
| 2026-04-17 17:12 | 62.99414 | 27.80984 | 546 ft | 170 kts | 340° |
| 2026-04-17 17:12 | 63.00516 | 27.79972 | 546 ft | 171 kts | 339° |
| 2026-04-17 17:12 | 63.01596 | 27.79000 | 756 ft | 161 kts | 340° |
| 2026-04-17 17:12 | 63.02464 | 27.77605 | 732 ft | 164 kts | 300° |
| 2026-04-17 17:13 | 63.02229 | 27.75289 | 702 ft | 160 kts | 228° |
| 2026-04-17 17:13 | 63.01250 | 27.74725 | 666 ft | 140 kts | 177° |
| 2026-04-17 17:13 | 63.00406 | 27.75236 | 879 ft | 117 kts | 161° |
| 2026-04-17 17:13 | 62.99672 | 27.75841 | 1077 ft | 109 kts | 156° |
| 2026-04-17 17:14 | 62.98993 | 27.76554 | 1130 ft | 106 kts | 150° |
| 2026-04-17 17:14 | 62.98349 | 27.77341 | 1145 ft | 107 kts | 146° |
| 2026-04-17 17:14 | 62.97993 | 27.78605 | 921 ft | 102 kts | 90° |
| 2026-04-17 17:15 | 62.98713 | 27.80914 | 654 ft | 92 kts | 50° |
| 2026-04-17 17:15 | 62.99356 | 27.80988 | 431 ft | 92 kts | 356° |
| 2026-04-17 17:15 | 62.99934 | 27.80487 | 313 ft | 81 kts | 347° |
| 2026-04-17 17:15 | 63.00372 | 27.80091 | 305 ft | 60 kts | 336° |
| 2026-04-17 17:16 | 63.00614 | 27.79867 | 312 ft | 4 kts | 336° |
| 2026-04-17 17:16 | 63.00638 | 27.79844 | 313 ft | 12 kts | 337° |
| 2026-04-17 17:16 | 63.00692 | 27.79654 | 317 ft | 19 kts | 260° |
| 2026-04-17 17:16 | 63.00634 | 27.79346 | 318 ft | 19 kts | 238° |
| 2026-04-17 17:17 | 63.00520 | 27.79147 | 316 ft | 22 kts | 217° |
| 2026-04-17 17:17 | 63.00417 | 27.79000 | 316 ft | 0 kts | 205° |
| 2026-04-17 17:17 | 63.00406 | 27.79020 | 316 ft | 3 kts | 93° |
| 2026-04-17 17:17 | 63.00408 | 27.79031 | 316 ft | 0 kts | 70° |